createdAt,value
2019-06-01T00:02:12.735Z,85.01
2019-06-01T00:04:39.066Z,85.25
2019-06-01T00:07:05.389Z,85.32
2019-06-01T00:09:31.707Z,85.49
2019-06-01T00:11:58.048Z,85.61
2019-06-01T00:14:24.355Z,85.76
2019-06-01T00:16:50.694Z,85.62
2019-06-01T00:19:17.000Z,85.69
2019-06-01T00:21:43.331Z,85.80
2019-06-01T00:24:09.624Z,85.70
2019-06-01T00:26:35.959Z,85.79
2019-06-01T00:29:02.286Z,85.71
2019-06-01T00:31:28.588Z,85.93
2019-06-01T00:33:54.917Z,86.13
2019-06-01T00:36:21.269Z,85.88
2019-06-01T00:38:47.909Z,85.83
2019-06-01T00:41:13.896Z,86.11
2019-06-01T00:43:40.212Z,86.26
2019-06-01T00:46:06.521Z,86.10
2019-06-01T00:48:32.859Z,86.19
2019-06-01T00:50:59.161Z,86.32
2019-06-01T00:53:25.492Z,86.75
2019-06-01T00:55:51.801Z,86.95
2019-06-01T00:58:18.136Z,87.32
2019-06-01T01:00:46.007Z,87.73
2019-06-01T01:03:10.768Z,87.74
2019-06-01T01:05:37.123Z,87.65
2019-06-01T01:08:03.421Z,87.70
2019-06-01T01:10:29.747Z,87.81
2019-06-01T01:12:56.048Z,87.98
2019-06-01T01:15:22.401Z,88.25
2019-06-01T01:17:49.777Z,88.34
2019-06-01T01:20:15.021Z,88.29
2019-06-01T01:22:41.326Z,88.37
2019-06-01T01:25:07.625Z,88.56
2019-06-01T01:27:33.961Z,88.10
2019-06-01T01:30:00.262Z,88.17
2019-06-01T01:32:26.599Z,88.01
2019-06-01T01:34:53.742Z,87.95
2019-06-01T01:37:19.219Z,88.04
2019-06-01T01:39:45.547Z,87.92
2019-06-01T01:42:11.866Z,88.39
2019-06-01T01:44:38.213Z,88.61
2019-06-01T01:47:04.519Z,88.82
2019-06-01T01:49:30.851Z,89.28
2019-06-01T01:51:57.417Z,89.30
2019-06-01T01:54:23.463Z,89.16
2019-06-01T01:56:49.995Z,89.36
2019-06-01T01:59:16.098Z,89.16
2019-06-01T02:01:42.434Z,89.45
2019-06-01T02:04:08.749Z,89.37
2019-06-01T02:06:35.052Z,89.12
2019-06-01T02:09:01.871Z,88.96
2019-06-01T02:11:27.690Z,88.65
2019-06-01T02:13:54.065Z,89.01
2019-06-01T02:16:20.396Z,89.12
2019-06-01T02:18:46.686Z,88.85
2019-06-01T02:21:12.988Z,89.03
2019-06-01T02:23:39.297Z,88.93
2019-06-01T02:26:05.656Z,88.84
2019-06-01T02:28:31.960Z,88.70
2019-06-01T02:30:59.779Z,88.45
2019-06-01T02:33:24.620Z,88.22
2019-06-01T02:35:50.911Z,87.97
2019-06-01T02:38:17.230Z,87.93
2019-06-01T02:40:43.533Z,87.80
2019-06-01T02:43:09.865Z,87.92
2019-06-01T02:45:36.229Z,88.09
2019-06-01T02:48:03.884Z,88.25
2019-06-01T02:50:28.839Z,88.33
2019-06-01T02:52:55.515Z,89.64
2019-06-01T02:55:21.515Z,99.06
2019-06-01T02:57:47.844Z,100.00
2019-06-01T03:00:14.165Z,98.50
2019-06-01T03:02:40.493Z,100.00
2019-06-01T03:05:07.664Z,100.00
2019-06-01T03:07:33.114Z,100.00
2019-06-01T03:10:00.630Z,97.13
2019-06-01T03:12:25.771Z,91.88
2019-06-01T03:14:52.099Z,89.99
2019-06-01T03:17:18.402Z,89.08
2019-06-01T03:19:44.757Z,88.11
2019-06-01T03:22:12.099Z,88.14
2019-06-01T03:24:37.388Z,87.90
2019-06-01T03:27:04.666Z,87.68
2019-06-01T03:29:30.031Z,87.84
2019-06-01T03:32:17.668Z,87.77
2019-06-01T03:34:22.657Z,87.73
2019-06-01T03:36:48.980Z,87.66
2019-06-01T03:39:15.289Z,87.64
2019-06-01T03:41:41.591Z,87.85
2019-06-01T03:44:08.529Z,87.90
2019-06-01T03:46:34.255Z,87.94
2019-06-01T03:49:01.434Z,88.00
2019-06-01T03:51:26.913Z,88.39
2019-06-01T03:53:53.245Z,88.60
2019-06-01T03:56:19.549Z,88.94
2019-06-01T03:58:45.889Z,89.24
2019-06-01T04:01:12.221Z,89.18
2019-06-01T04:03:38.544Z,89.09
2019-06-01T04:06:05.331Z,88.90
2019-06-01T04:08:31.172Z,89.50
2019-06-01T04:10:57.505Z,89.65
2019-06-01T04:13:23.808Z,89.84
2019-06-01T04:15:50.137Z,89.72
2019-06-01T04:18:16.447Z,89.60
2019-06-01T04:20:42.763Z,89.42
2019-06-01T04:23:10.159Z,89.57
2019-06-01T04:25:35.426Z,89.78
2019-06-01T04:28:02.078Z,89.90
2019-06-01T04:30:28.083Z,89.57
2019-06-01T04:32:54.395Z,89.38
2019-06-01T04:35:20.727Z,89.27
2019-06-01T04:37:47.054Z,89.26
2019-06-01T04:40:13.649Z,88.89
2019-06-01T04:42:39.685Z,88.22
2019-06-01T04:45:06.900Z,87.98
2019-06-01T04:47:32.367Z,87.79
2019-06-01T04:49:58.675Z,87.48
2019-06-01T04:52:25.033Z,87.17
2019-06-01T04:54:51.332Z,86.95
2019-06-01T04:57:17.678Z,86.33
2019-06-01T04:59:44.016Z,86.41
2019-06-01T05:02:11.578Z,86.25
2019-06-01T05:04:36.678Z,85.41
2019-06-01T05:07:02.983Z,85.21
2019-06-01T05:09:29.332Z,84.92
2019-06-01T05:11:55.633Z,84.93
2019-06-01T05:14:21.974Z,84.92
2019-06-01T05:16:48.275Z,85.15
2019-06-01T05:19:14.628Z,85.19
2019-06-01T05:21:40.950Z,84.69
2019-06-01T05:24:08.725Z,84.38
2019-06-01T05:26:33.582Z,84.42
2019-06-01T05:28:59.888Z,84.50
2019-06-01T05:31:26.211Z,83.79
2019-06-01T05:33:52.527Z,84.09
2019-06-01T05:36:18.841Z,84.52
2019-06-01T05:38:45.169Z,83.90
2019-06-01T05:41:11.938Z,84.01
2019-06-01T05:43:37.824Z,84.24
2019-06-01T05:46:04.169Z,84.21
2019-06-01T05:48:30.831Z,84.20
2019-06-01T05:50:56.833Z,84.68
2019-06-01T05:53:23.199Z,84.52
2019-06-01T05:55:49.490Z,84.01
2019-06-01T05:58:17.116Z,83.96
2019-06-01T06:00:42.135Z,83.85
2019-06-01T06:03:08.451Z,83.16
2019-06-01T06:05:34.775Z,83.24
2019-06-01T06:08:01.102Z,83.35
2019-06-01T06:10:27.424Z,83.29
2019-06-01T06:12:53.774Z,82.99
2019-06-01T06:15:20.080Z,82.47
2019-06-01T06:17:46.383Z,81.95
2019-06-01T06:20:13.782Z,80.30
2019-06-01T06:22:41.224Z,85.27
2019-06-01T06:25:05.373Z,90.70
2019-06-01T06:27:31.685Z,89.41
2019-06-01T06:29:58.002Z,87.67
2019-06-01T06:32:24.305Z,85.55
2019-06-01T06:34:50.636Z,84.47
2019-06-01T06:37:17.642Z,82.95
2019-06-01T06:39:43.258Z,82.02
2019-06-01T06:42:09.582Z,80.69
2019-06-01T06:44:35.874Z,78.49
2019-06-01T06:47:02.207Z,75.69
2019-06-01T06:49:28.507Z,75.45
2019-06-01T06:51:54.828Z,75.05
2019-06-01T06:54:21.862Z,75.95
2019-06-01T06:56:47.442Z,75.67
2019-06-01T06:59:13.770Z,75.23
2019-06-01T07:01:40.066Z,75.37
2019-06-01T07:04:12.751Z,73.61
2019-06-01T07:06:32.739Z,72.31
2019-06-01T07:08:59.053Z,71.96
2019-06-01T07:11:25.455Z,71.19
2019-06-01T07:13:51.693Z,71.50
2019-06-01T07:16:19.205Z,71.51
2019-06-01T07:18:44.322Z,70.65
2019-06-01T07:21:10.631Z,70.00
2019-06-01T07:23:36.952Z,69.62
2019-06-01T07:26:03.254Z,69.90
2019-06-01T07:28:29.580Z,69.42
2019-06-01T07:30:55.898Z,68.00
2019-06-01T07:33:22.440Z,68.33
2019-06-01T07:35:48.548Z,67.67
2019-06-01T07:38:14.894Z,67.50
2019-06-01T07:40:41.235Z,66.83
2019-06-01T07:43:07.546Z,66.42
2019-06-01T07:45:35.320Z,66.12
2019-06-01T07:48:00.231Z,66.15
2019-06-01T07:50:26.529Z,66.03
2019-06-01T07:52:52.887Z,65.29
2019-06-01T07:55:19.207Z,63.93
2019-06-01T07:57:45.506Z,64.24
2019-06-01T08:00:11.847Z,64.70
2019-06-01T08:02:38.147Z,64.45
2019-06-01T08:05:04.484Z,64.56
2019-06-01T08:07:31.311Z,64.22
2019-06-01T08:09:57.202Z,63.82
2019-06-01T08:12:23.480Z,62.99
2019-06-01T08:14:49.785Z,62.54
2019-06-01T08:17:16.114Z,61.69
2019-06-01T08:19:42.418Z,61.85
2019-06-01T08:22:08.770Z,61.85
2019-06-01T08:24:35.084Z,61.49
2019-06-01T08:27:01.399Z,60.72
2019-06-01T08:29:28.805Z,60.83
2019-06-01T08:31:55.856Z,60.56
2019-06-01T08:34:20.340Z,58.48
2019-06-01T08:36:46.671Z,58.98
2019-06-01T08:39:13.004Z,56.85
2019-06-01T08:41:39.332Z,57.12
2019-06-01T08:44:05.645Z,57.94
2019-06-01T08:46:31.982Z,56.84
2019-06-01T08:48:58.290Z,57.98
2019-06-01T08:51:26.360Z,59.96
2019-06-01T08:53:50.951Z,59.85
2019-06-01T08:56:17.253Z,60.75
2019-06-01T08:58:43.580Z,60.58
2019-06-01T09:01:09.891Z,60.02
2019-06-01T09:03:43.644Z,60.76
2019-06-01T09:06:02.511Z,59.64
2019-06-01T09:08:28.958Z,60.60
2019-06-01T09:10:55.144Z,60.48
2019-06-01T09:13:21.544Z,58.07
2019-06-01T09:15:47.866Z,58.59
2019-06-01T09:18:14.205Z,58.76
2019-06-01T09:20:40.529Z,55.92
2019-06-01T09:23:06.834Z,55.50
2019-06-01T09:25:33.829Z,55.53
2019-06-01T09:27:59.469Z,56.33
2019-06-01T09:30:25.933Z,56.03
2019-06-01T09:32:52.142Z,53.61
2019-06-01T09:35:18.464Z,52.65
2019-06-01T09:37:45.889Z,53.55
2019-06-01T09:40:11.128Z,54.67
2019-06-01T09:42:37.616Z,55.43
2019-06-01T09:45:03.781Z,56.70
2019-06-01T09:47:30.987Z,55.89
2019-06-01T09:49:56.420Z,54.13
2019-06-01T09:52:22.743Z,53.72
2019-06-01T09:54:49.050Z,53.25
2019-06-01T09:57:15.371Z,53.44
2019-06-01T09:59:41.678Z,54.16
2019-06-01T10:02:08.008Z,54.23
2019-06-01T10:04:34.447Z,54.69
2019-06-01T10:07:00.628Z,54.20
2019-06-01T10:09:26.931Z,54.12
2019-06-01T10:11:53.245Z,54.24
2019-06-01T10:14:19.578Z,53.31
2019-06-01T10:16:45.914Z,53.20
2019-06-01T10:19:12.232Z,53.85
2019-06-01T10:21:38.536Z,54.21
2019-06-01T10:24:04.890Z,53.43
2019-06-01T10:26:31.414Z,52.93
2019-06-01T10:28:57.520Z,52.59
2019-06-01T10:31:23.880Z,52.46
2019-06-01T10:33:51.775Z,52.30
2019-06-01T10:36:21.037Z,49.89
2019-06-01T10:38:42.806Z,49.30
2019-06-01T10:41:09.137Z,49.85
2019-06-01T10:43:35.668Z,51.19
2019-06-01T10:46:01.811Z,51.38
2019-06-01T10:48:28.121Z,50.18
2019-06-01T10:50:54.436Z,48.87
2019-06-01T10:53:20.758Z,49.06
2019-06-01T10:55:47.058Z,49.72
2019-06-01T10:58:13.393Z,50.65
2019-06-01T11:00:47.752Z,49.52
2019-06-01T11:03:06.103Z,49.69
2019-06-01T11:05:32.601Z,50.13
2019-06-01T11:07:58.681Z,50.56
2019-06-01T11:10:24.988Z,50.12
2019-06-01T11:12:51.350Z,48.85
2019-06-01T11:15:17.643Z,48.46
2019-06-01T11:17:43.965Z,49.10
2019-06-01T11:20:10.274Z,49.59
2019-06-01T11:22:37.514Z,49.61
2019-06-01T11:25:02.977Z,47.00
2019-06-01T11:27:29.283Z,47.10
2019-06-01T11:29:55.629Z,48.29
2019-06-01T11:32:21.934Z,48.71
2019-06-01T11:34:48.273Z,49.74
2019-06-01T11:37:15.832Z,49.39
2019-06-01T11:39:40.913Z,49.51
2019-06-01T11:42:07.231Z,49.26
2019-06-01T11:44:34.623Z,49.38
2019-06-01T11:46:59.870Z,49.59
2019-06-01T11:49:26.178Z,49.38
2019-06-01T11:51:52.565Z,48.04
2019-06-01T11:54:18.823Z,47.35
2019-06-01T11:56:45.509Z,47.59
2019-06-01T11:59:11.458Z,48.17
2019-06-01T12:01:37.813Z,48.77
2019-06-01T12:04:04.111Z,48.77
2019-06-01T12:06:30.446Z,48.53
2019-06-01T12:08:56.788Z,48.75
2019-06-01T12:11:23.101Z,48.94
2019-06-01T12:13:49.435Z,48.89
2019-06-01T12:16:15.745Z,49.29
2019-06-01T12:18:42.629Z,49.25
2019-06-01T12:21:08.366Z,49.22
2019-06-01T12:23:34.681Z,49.55
2019-06-01T12:26:01.008Z,51.54
2019-06-01T12:28:27.339Z,52.03
2019-06-01T12:30:53.654Z,50.72
2019-06-01T12:33:19.985Z,51.01
2019-06-01T12:35:46.290Z,51.96
2019-06-01T12:38:12.619Z,50.88
2019-06-01T12:40:39.140Z,51.31
2019-06-01T12:43:05.282Z,51.97
2019-06-01T12:45:31.579Z,51.40
2019-06-01T12:47:58.681Z,51.00
2019-06-01T12:50:24.262Z,51.52
2019-06-01T12:52:50.573Z,50.15
2019-06-01T12:55:16.906Z,50.85
2019-06-01T12:57:43.230Z,50.44
2019-06-01T13:00:09.541Z,50.22
2019-06-01T13:02:35.871Z,50.93
2019-06-01T13:05:02.178Z,50.61
2019-06-01T13:07:28.484Z,50.61
2019-06-01T13:09:54.867Z,51.44
2019-06-01T13:12:21.208Z,51.57
2019-06-01T13:14:47.525Z,51.12
2019-06-01T13:17:17.164Z,49.88
2019-06-01T13:19:43.497Z,50.40
2019-06-01T13:22:09.854Z,49.11
2019-06-01T13:24:36.168Z,49.04
2019-06-01T13:27:02.574Z,49.13
2019-06-01T13:29:28.871Z,48.85
2019-06-01T13:31:55.215Z,49.82
2019-06-01T13:34:21.519Z,49.45
2019-06-01T13:36:48.991Z,48.02
2019-06-01T13:39:14.160Z,48.23
2019-06-01T13:41:40.494Z,48.57
2019-06-01T13:44:06.818Z,46.59
2019-06-01T13:46:33.138Z,46.65
2019-06-01T13:48:59.545Z,48.54
2019-06-01T13:51:25.868Z,48.38
2019-06-01T13:53:52.942Z,48.28
2019-06-01T13:56:18.525Z,48.41
2019-06-01T13:58:44.825Z,48.42
2019-06-01T14:01:11.197Z,48.92
2019-06-01T14:03:37.502Z,48.45
2019-06-01T14:06:03.817Z,48.97
2019-06-01T14:08:30.138Z,48.68
2019-06-01T14:10:57.938Z,49.27
2019-06-01T14:13:22.767Z,49.24
2019-06-01T14:15:49.524Z,47.01
2019-06-01T14:18:15.552Z,45.77
2019-06-01T14:20:42.164Z,46.23
2019-06-01T14:23:08.518Z,46.36
2019-06-01T14:25:34.892Z,46.32
2019-06-01T14:28:01.208Z,46.19
2019-06-01T14:30:27.536Z,45.29
2019-06-01T14:32:54.451Z,45.16
2019-06-01T14:35:20.182Z,44.76
2019-06-01T14:37:46.705Z,44.66
2019-06-01T14:40:16.493Z,44.63
2019-06-01T14:42:40.584Z,45.05
2019-06-01T14:45:06.899Z,45.39
2019-06-01T14:47:33.214Z,45.42
2019-06-01T14:49:59.530Z,46.17
2019-06-01T14:52:25.861Z,46.45
2019-06-01T14:54:52.199Z,46.17
2019-06-01T14:57:18.508Z,46.47
2019-06-01T14:59:44.831Z,47.10
2019-06-01T15:02:11.138Z,47.53
2019-06-01T15:04:37.449Z,46.98
2019-06-01T15:07:03.778Z,46.59
2019-06-01T15:09:30.116Z,46.35
2019-06-01T15:11:56.708Z,47.02
2019-06-01T15:14:22.746Z,47.51
2019-06-01T15:16:49.544Z,47.12
2019-06-01T15:19:15.445Z,47.51
2019-06-01T15:21:41.802Z,47.09
2019-06-01T15:24:08.132Z,47.18
2019-06-01T15:26:34.437Z,46.84
2019-06-01T15:29:00.775Z,46.99
2019-06-01T15:31:27.110Z,47.80
2019-06-01T15:33:53.415Z,46.89
2019-06-01T15:36:19.725Z,46.65
2019-06-01T15:38:46.050Z,47.08
2019-06-01T15:41:12.361Z,47.38
2019-06-01T15:43:38.671Z,47.84
2019-06-01T15:46:05.008Z,48.49
2019-06-01T15:48:31.316Z,48.87
2019-06-01T15:51:02.296Z,49.20
2019-06-01T15:53:23.960Z,49.41
2019-06-01T15:55:50.303Z,49.96
2019-06-01T15:58:16.604Z,50.26
2019-06-01T16:00:42.967Z,50.51
2019-06-01T16:03:09.288Z,50.70
2019-06-01T16:05:35.591Z,50.77
2019-06-01T16:08:01.916Z,51.22
2019-06-01T16:10:28.227Z,51.62
2019-06-01T16:12:55.334Z,51.83
2019-06-01T16:15:20.864Z,51.92
2019-06-01T16:17:47.167Z,52.01
2019-06-01T16:20:13.557Z,52.11
2019-06-01T16:22:39.920Z,52.25
2019-06-01T16:25:06.235Z,52.29
2019-06-01T16:27:32.565Z,52.32
2019-06-01T16:30:00.216Z,52.35
2019-06-01T16:32:25.269Z,52.51
2019-06-01T16:34:51.637Z,52.47
2019-06-01T16:37:17.966Z,52.78
2019-06-01T16:39:58.413Z,52.96
2019-06-01T16:42:10.583Z,53.42
2019-06-01T16:44:36.903Z,53.92
2019-06-01T16:47:04.524Z,54.54
2019-06-01T16:49:29.686Z,55.22
2019-06-01T16:51:56.584Z,55.76
2019-06-01T16:54:22.323Z,56.24
2019-06-01T16:56:48.662Z,56.63
2019-06-01T16:59:14.995Z,56.96
2019-06-01T17:01:41.313Z,56.88
2019-06-01T17:04:07.685Z,57.13
2019-06-01T17:06:34.012Z,57.45
2019-06-01T17:09:00.815Z,57.86
2019-06-01T17:11:26.701Z,58.21
2019-06-01T17:13:53.036Z,58.67
2019-06-01T17:16:19.340Z,59.12
2019-06-01T17:18:45.643Z,59.63
2019-06-01T17:21:11.958Z,59.94
2019-06-01T17:23:38.268Z,60.35
2019-06-01T17:26:06.513Z,60.78
2019-06-01T17:28:30.973Z,61.26
2019-06-01T17:30:58.372Z,61.62
2019-06-01T17:33:23.603Z,62.00
2019-06-01T17:35:49.928Z,62.26
2019-06-01T17:38:16.232Z,62.59
2019-06-01T17:40:43.321Z,62.85
2019-06-01T17:43:09.032Z,63.22
2019-06-01T17:45:35.166Z,63.62
2019-06-01T17:48:17.282Z,63.82
2019-06-01T17:50:27.787Z,64.10
2019-06-01T17:52:54.115Z,64.38
2019-06-01T17:55:20.428Z,64.40
2019-06-01T17:57:46.758Z,64.59
2019-06-01T18:00:13.082Z,64.72
2019-06-01T18:02:39.386Z,64.91
2019-06-01T18:05:05.866Z,65.04
2019-06-01T18:07:32.030Z,65.15
2019-06-01T18:09:58.335Z,65.32
2019-06-01T18:12:24.664Z,65.24
2019-06-01T18:14:51.008Z,65.52
2019-06-01T18:17:17.294Z,65.64
2019-06-01T18:19:43.620Z,65.65
2019-06-01T18:22:10.912Z,65.81
2019-06-01T18:24:36.260Z,65.83
2019-06-01T18:27:02.569Z,66.22
2019-06-01T18:29:28.892Z,66.99
2019-06-01T18:31:55.196Z,67.31
2019-06-01T18:34:21.525Z,67.46
2019-06-01T18:36:47.833Z,67.83
2019-06-01T18:39:14.145Z,68.18
2019-06-01T18:41:40.469Z,68.52
2019-06-01T18:44:07.676Z,69.20
2019-06-01T18:46:33.105Z,69.48
2019-06-01T18:48:59.435Z,69.73
2019-06-01T18:51:25.740Z,69.88
2019-06-01T18:53:52.073Z,70.09
2019-06-01T18:56:18.377Z,70.42
2019-06-01T18:58:44.688Z,70.54
2019-06-01T19:01:11.024Z,70.57
2019-06-01T19:03:37.327Z,70.69
2019-06-01T19:06:03.676Z,70.84
2019-06-01T19:08:30.075Z,70.77
2019-06-01T19:10:56.355Z,71.05
2019-06-01T19:13:22.643Z,70.87
2019-06-01T19:15:48.975Z,70.78
2019-06-01T19:18:16.818Z,70.80
2019-06-01T19:20:41.615Z,71.16
2019-06-01T19:23:08.700Z,71.17
2019-06-01T19:25:34.258Z,71.36
2019-06-01T19:28:00.611Z,71.30
2019-06-01T19:30:26.920Z,71.68
2019-06-01T19:32:53.254Z,71.90
2019-06-01T19:35:19.557Z,72.24
2019-06-01T19:37:45.910Z,72.53
2019-06-01T19:40:13.377Z,72.53
2019-06-01T19:42:38.531Z,72.44
2019-06-01T19:45:04.919Z,72.34
2019-06-01T19:47:31.193Z,72.73
2019-06-01T19:49:57.517Z,72.82
2019-06-01T19:52:23.818Z,73.26
2019-06-01T19:54:50.154Z,73.10
2019-06-01T19:57:20.277Z,73.04
2019-06-01T19:59:42.799Z,73.33
2019-06-01T20:02:24.051Z,73.31
2019-06-01T20:04:35.441Z,73.13
2019-06-01T20:07:01.764Z,72.73
2019-06-01T20:09:28.095Z,72.45
2019-06-01T20:12:01.796Z,72.71
2019-06-01T20:14:20.751Z,73.47
2019-06-01T20:16:47.079Z,73.79
2019-06-01T20:19:13.449Z,74.03
2019-06-01T20:21:39.721Z,74.52
2019-06-01T20:24:06.106Z,74.95
2019-06-01T20:26:42.166Z,75.10
2019-06-01T20:28:58.672Z,75.53
2019-06-01T20:31:25.009Z,75.81
2019-06-01T20:33:51.357Z,76.16
2019-06-01T20:36:18.116Z,76.24
2019-06-01T20:38:44.043Z,76.84
2019-06-01T20:41:10.365Z,76.47
2019-06-01T20:43:36.699Z,76.26
2019-06-01T20:46:03.001Z,76.63
2019-06-01T20:48:29.333Z,76.73
2019-06-01T20:50:55.639Z,76.79
2019-06-01T20:53:23.253Z,77.25
2019-06-01T20:55:48.286Z,76.87
2019-06-01T20:58:15.982Z,77.04
2019-06-01T21:00:40.922Z,77.15
2019-06-01T21:03:07.258Z,77.36
2019-06-01T21:05:33.555Z,77.38
2019-06-01T21:07:59.865Z,77.33
2019-06-01T21:10:26.195Z,77.91
2019-06-01T21:12:52.530Z,77.67
2019-06-01T21:15:19.296Z,77.70
2019-06-01T21:17:45.164Z,77.95
2019-06-01T21:20:11.537Z,77.90
2019-06-01T21:22:37.842Z,78.31
2019-06-01T21:25:04.175Z,78.45
2019-06-01T21:27:30.468Z,78.64
2019-06-01T21:29:56.807Z,78.54
2019-06-01T21:32:23.638Z,78.58
2019-06-01T21:34:49.449Z,78.74
2019-06-01T21:37:15.774Z,77.93
2019-06-01T21:39:42.077Z,77.69
2019-06-01T21:42:08.408Z,77.72
2019-06-01T21:44:34.709Z,78.20
2019-06-01T21:47:01.066Z,78.93
2019-06-01T21:49:27.361Z,79.40
2019-06-01T21:51:53.724Z,79.72
2019-06-01T21:54:20.180Z,80.30
2019-06-01T21:56:46.348Z,80.77
2019-06-01T21:59:12.676Z,81.05
2019-06-01T22:01:38.987Z,81.42
2019-06-01T22:04:05.315Z,81.84
2019-06-01T22:06:31.621Z,81.73
2019-06-01T22:08:57.972Z,82.57
2019-06-01T22:11:25.467Z,84.40
2019-06-01T22:13:50.634Z,86.37
2019-06-01T22:16:17.500Z,88.34
2019-06-01T22:18:43.228Z,90.45
2019-06-01T22:21:09.561Z,91.43
2019-06-01T22:23:35.883Z,92.13
2019-06-01T22:26:02.209Z,93.04
2019-06-01T22:28:28.726Z,94.34
2019-06-01T22:30:54.846Z,95.99
2019-06-01T22:33:22.792Z,96.85
2019-06-01T22:35:47.476Z,97.70
2019-06-01T22:38:13.811Z,97.91
2019-06-01T22:40:40.122Z,98.96
2019-06-01T22:43:06.430Z,99.17
2019-06-01T22:45:33.470Z,98.96
2019-06-01T22:47:59.070Z,98.71
2019-06-01T22:50:25.415Z,99.08
2019-06-01T22:52:51.740Z,99.98
2019-06-01T22:55:18.557Z,100.00
2019-06-01T22:57:44.899Z,100.00
2019-06-01T23:00:11.188Z,99.60
2019-06-01T23:02:37.580Z,98.91
2019-06-01T23:05:03.881Z,99.62
2019-06-01T23:07:31.357Z,100.00
2019-06-01T23:09:56.513Z,100.00
2019-06-01T23:12:23.332Z,100.00
2019-06-01T23:14:49.171Z,100.00
2019-06-01T23:17:15.479Z,100.00
2019-06-01T23:19:41.809Z,100.00
2019-06-01T23:22:08.141Z,100.00
2019-06-01T23:24:34.456Z,100.00
2019-06-01T23:27:00.789Z,100.00
2019-06-01T23:29:28.076Z,100.00
2019-06-01T23:31:53.410Z,100.00
2019-06-01T23:34:19.745Z,100.00
2019-06-01T23:36:46.051Z,100.00
2019-06-01T23:39:12.382Z,100.00
2019-06-01T23:41:38.720Z,100.00
2019-06-01T23:44:11.734Z,100.00
2019-06-01T23:46:31.347Z,100.00
2019-06-01T23:48:57.681Z,100.00
2019-06-01T23:51:25.288Z,100.00
2019-06-01T23:53:50.324Z,100.00
2019-06-01T23:56:16.659Z,100.00
2019-06-01T23:58:42.970Z,100.00
